sensor_id;sensor_type;location;lat;lon;timestamp;pressure;altitude;pressure_sealevel;temperature;humidity
51178;BME280;37243;49.814;8.652;2023-02-24T07:25:35;99545.44;;;23.29;47.87
51178;BME280;37243;49.814;8.652;2023-02-24T07:28:05;99531.84;;;23.49;47.33
51178;BME280;37243;49.814;8.652;2023-02-24T07:30:34;99524.06;;;23.68;47.19
51178;BME280;37243;49.814;8.652;2023-02-24T07:35:29;99526.59;;;24.03;46.50
51178;BME280;37243;49.814;8.652;2023-02-24T07:37:57;99522.97;;;24.19;46.00
51178;BME280;37243;49.814;8.652;2023-02-24T07:40:29;99518.00;;;24.34;45.16
51178;BME280;37243;49.814;8.652;2023-02-24T07:42:59;99512.59;;;24.46;45.21
51178;BME280;37243;49.814;8.652;2023-02-24T07:45:27;99510.25;;;24.56;44.92
51178;BME280;37243;49.814;8.652;2023-02-24T07:47:56;99510.97;;;24.65;44.73
51178;BME280;37243;49.814;8.652;2023-02-24T07:50:29;99507.00;;;24.75;44.78
51178;BME280;37243;49.814;8.652;2023-02-24T07:52:57;99506.16;;;24.83;44.73
51178;BME280;37243;49.814;8.652;2023-02-24T07:55:29;99498.19;;;24.90;44.26
51178;BME280;37243;49.814;8.652;2023-02-24T07:57:57;99501.16;;;24.97;43.83
51178;BME280;37243;49.814;8.652;2023-02-24T08:00:27;99493.50;;;25.03;43.90
51178;BME280;37243;49.814;8.652;2023-02-24T08:03:14;99487.84;;;25.08;43.74
51178;BME280;37243;49.814;8.652;2023-02-24T08:05:45;99484.06;;;25.12;43.66
51178;BME280;37243;49.814;8.652;2023-02-24T08:08:13;99493.69;;;25.18;42.87
51178;BME280;37243;49.814;8.652;2023-02-24T08:10:45;99488.75;;;25.24;42.88
51178;BME280;37243;49.814;8.652;2023-02-24T08:13:13;99494.81;;;25.29;42.94
51178;BME280;37243;49.814;8.652;2023-02-24T08:15:43;99487.97;;;25.35;43.03
51178;BME280;37243;49.814;8.652;2023-02-24T08:18:20;99484.19;;;25.40;43.20
51178;BME280;37243;49.814;8.652;2023-02-24T08:20:51;99483.19;;;25.45;42.82
51178;BME280;37243;49.814;8.652;2023-02-24T08:23:29;99482.97;;;25.50;42.58
51178;BME280;37243;49.814;8.652;2023-02-24T08:26:08;99482.28;;;25.53;42.73
51178;BME280;37243;49.814;8.652;2023-02-24T08:28:37;99466.75;;;25.57;42.07
51178;BME280;37243;49.814;8.652;2023-02-24T08:31:06;99475.88;;;25.61;41.81
51178;BME280;37243;49.814;8.652;2023-02-24T08:33:37;99471.63;;;25.63;41.75
51178;BME280;37243;49.814;8.652;2023-02-24T08:36:08;99474.50;;;25.67;42.57
51178;BME280;37243;49.814;8.652;2023-02-24T08:38:36;99472.69;;;25.71;42.43
51178;BME280;37243;49.814;8.652;2023-02-24T08:41:14;99458.94;;;25.71;42.00
51178;BME280;37243;49.814;8.652;2023-02-24T08:43:46;99459.03;;;25.74;41.84
51178;BME280;37243;49.814;8.652;2023-02-24T08:46:18;99459.84;;;25.75;41.80
51178;BME280;37243;49.814;8.652;2023-02-24T08:48:52;99453.22;;;25.76;42.41
51178;BME280;37243;49.814;8.652;2023-02-24T08:51:26;99449.31;;;25.77;42.31
51178;BME280;37243;49.814;8.652;2023-02-24T08:54:00;99441.88;;;25.77;42.13
51178;BME280;37243;49.814;8.652;2023-02-24T08:56:36;99436.03;;;25.79;41.45
51178;BME280;37243;49.814;8.652;2023-02-24T08:59:09;99443.91;;;25.80;41.79
51178;BME280;37243;49.814;8.652;2023-02-24T09:01:54;99439.22;;;25.81;41.73
51178;BME280;37243;49.814;8.652;2023-02-24T09:04:42;99434.53;;;25.81;42.20
51178;BME280;37243;49.814;8.652;2023-02-24T09:07:15;99427.91;;;25.82;41.43
51178;BME280;37243;49.814;8.652;2023-02-24T09:09:45;99429.16;;;25.85;41.97
51178;BME280;37243;49.814;8.652;2023-02-24T09:12:14;99426.84;;;25.87;41.85
51178;BME280;37243;49.814;8.652;2023-02-24T09:14:50;99424.56;;;25.89;41.76
51178;BME280;37243;49.814;8.652;2023-02-24T09:17:21;99418.72;;;25.90;41.46
51178;BME280;37243;49.814;8.652;2023-02-24T09:20:06;99417.59;;;25.91;40.90
51178;BME280;37243;49.814;8.652;2023-02-24T09:23:13;99423.84;;;25.92;41.19
51178;BME280;37243;49.814;8.652;2023-02-24T09:25:45;99416.09;;;25.94;41.36
51178;BME280;37243;49.814;8.652;2023-02-24T09:28:20;99416.09;;;25.94;41.26
51178;BME280;37243;49.814;8.652;2023-02-24T09:30:50;99411.38;;;25.94;41.62
51178;BME280;37243;49.814;8.652;2023-02-24T09:33:24;99418.84;;;25.94;41.26
51178;BME280;37243;49.814;8.652;2023-02-24T09:35:56;99412.16;;;25.95;41.69
51178;BME280;37243;49.814;8.652;2023-02-24T09:38:38;99413.78;;;25.96;41.01
51178;BME280;37243;49.814;8.652;2023-02-24T09:41:26;99405.88;;;25.94;41.34
51178;BME280;37243;49.814;8.652;2023-02-24T09:44:21;99406.22;;;25.93;41.27
51178;BME280;37243;49.814;8.652;2023-02-24T09:46:56;99401.88;;;25.92;41.88
51178;BME280;37243;49.814;8.652;2023-02-24T09:49:29;99391.25;;;25.90;41.77
51178;BME280;37243;49.814;8.652;2023-02-24T09:52:09;99391.59;;;25.89;41.67
51178;BME280;37243;49.814;8.652;2023-02-24T09:54:46;99392.75;;;25.88;41.68
51178;BME280;37243;49.814;8.652;2023-02-24T09:57:39;99395.81;;;25.86;41.53
51178;BME280;37243;49.814;8.652;2023-02-24T10:00:29;99377.41;;;25.87;42.27
51178;BME280;37243;49.814;8.652;2023-02-24T10:03:03;99381.28;;;25.86;41.48
51178;BME280;37243;49.814;8.652;2023-02-24T10:05:49;99374.66;;;25.87;41.79
51178;BME280;37243;49.814;8.652;2023-02-24T10:08:30;99364.78;;;25.86;41.43
51178;BME280;37243;49.814;8.652;2023-02-24T10:11:03;99360.91;;;25.87;41.87
51178;BME280;37243;49.814;8.652;2023-02-24T10:13:36;99360.91;;;25.87;41.41
51178;BME280;37243;49.814;8.652;2023-02-24T10:16:10;99358.59;;;25.89;41.44
51178;BME280;37243;49.814;8.652;2023-02-24T10:18:51;99355.84;;;25.89;41.97
51178;BME280;37243;49.814;8.652;2023-02-24T10:21:28;99351.16;;;25.89;42.07
51178;BME280;37243;49.814;8.652;2023-02-24T10:24:16;99346.47;;;25.90;42.09
51178;BME280;37243;49.814;8.652;2023-02-24T10:26:53;99343.28;;;25.88;42.00
51178;BME280;37243;49.814;8.652;2023-02-24T10:29:30;99348.41;;;25.89;42.46
51178;BME280;37243;49.814;8.652;2023-02-24T10:32:16;99342.94;;;25.89;41.79
51178;BME280;37243;49.814;8.652;2023-02-24T10:34:48;99349.22;;;25.90;41.98
51178;BME280;37243;49.814;8.652;2023-02-24T10:37:18;99340.97;;;25.90;42.25
51178;BME280;37243;49.814;8.652;2023-02-24T10:39:48;99332.75;;;25.90;42.14
51178;BME280;37243;49.814;8.652;2023-02-24T10:42:27;99322.88;;;25.89;42.59
51178;BME280;37243;49.814;8.652;2023-02-24T10:45:10;99321.75;;;25.90;41.87
51178;BME280;37243;49.814;8.652;2023-02-24T10:47:43;99317.88;;;25.91;42.72
51178;BME280;37243;49.814;8.652;2023-02-24T10:50:20;99320.63;;;25.91;41.97
51178;BME280;37243;49.814;8.652;2023-02-24T10:52:52;99317.94;;;25.94;42.46
51178;BME280;37243;49.814;8.652;2023-02-24T10:55:37;99316.47;;;25.97;41.91
51178;BME280;37243;49.814;8.652;2023-02-24T10:58:29;99308.66;;;25.99;42.07
51178;BME280;37243;49.814;8.652;2023-02-24T11:01:13;99306.34;;;26.01;42.18
51178;BME280;37243;49.814;8.652;2023-02-24T11:03:50;99314.69;;;26.05;42.18
51178;BME280;37243;49.814;8.652;2023-02-24T11:06:47;99294.31;;;26.06;41.62
51178;BME280;37243;49.814;8.652;2023-02-24T11:09:33;99287.31;;;26.08;41.49
51178;BME280;37243;49.814;8.652;2023-02-24T11:12:13;99280.66;;;26.09;41.04
51178;BME280;37243;49.814;8.652;2023-02-24T11:15:01;99283.41;;;26.09;41.67
51178;BME280;37243;49.814;8.652;2023-02-24T11:17:47;99271.28;;;26.10;40.73
51178;BME280;37243;49.814;8.652;2023-02-24T11:20:28;99263.38;;;26.09;40.91
51178;BME280;37243;49.814;8.652;2023-02-24T11:22:57;99255.91;;;26.09;41.23
51178;BME280;37243;49.814;8.652;2023-02-24T11:25:32;99259.03;;;26.08;40.89
51178;BME280;37243;49.814;8.652;2023-02-24T11:28:12;99256.97;;;26.05;40.69
51178;BME280;37243;49.814;8.652;2023-02-24T11:30:54;99251.38;;;26.01;40.86
51178;BME280;37243;49.814;8.652;2023-02-24T11:33:30;99234.91;;;26.01;40.91
51178;BME280;37243;49.814;8.652;2023-02-24T11:36:11;99236.78;;;25.97;41.58
51178;BME280;37243;49.814;8.652;2023-02-24T11:38:55;99230.81;;;25.95;41.58
51178;BME280;37243;49.814;8.652;2023-02-24T11:41:30;99219.75;;;25.91;41.48
51178;BME280;37243;49.814;8.652;2023-02-24T11:44:06;99215.03;;;25.92;42.01
51178;BME280;37243;49.814;8.652;2023-02-24T11:46:42;99204.03;;;25.92;41.61
51178;BME280;37243;49.814;8.652;2023-02-24T11:49:23;99205.66;;;25.93;42.05
51178;BME280;37243;49.814;8.652;2023-02-24T11:51:54;99202.63;;;25.98;42.07
51178;BME280;37243;49.814;8.652;2023-02-24T11:54:24;99201.50;;;25.99;42.84
51178;BME280;37243;49.814;8.652;2023-02-24T11:56:55;99187.38;;;26.01;42.28
51178;BME280;37243;49.814;8.652;2023-02-24T11:59:29;99187.84;;;26.03;43.01
51178;BME280;37243;49.814;8.652;2023-02-24T12:02:13;99178.44;;;26.04;42.82
51178;BME280;37243;49.814;8.652;2023-02-24T12:04:51;99177.72;;;26.07;43.05
51178;BME280;37243;49.814;8.652;2023-02-24T12:07:24;99165.69;;;26.11;43.39
51178;BME280;37243;49.814;8.652;2023-02-24T12:10:00;99174.03;;;26.15;43.10
51178;BME280;37243;49.814;8.652;2023-02-24T12:12:33;99162.31;;;26.18;43.21
51178;BME280;37243;49.814;8.652;2023-02-24T12:15:09;99153.38;;;26.21;43.89
51178;BME280;37243;49.814;8.652;2023-02-24T12:17:48;99150.38;;;26.26;43.35
51178;BME280;37243;49.814;8.652;2023-02-24T12:20:27;99140.22;;;26.30;43.63
51178;BME280;37243;49.814;8.652;2023-02-24T12:23:13;99134.41;;;26.31;43.31
51178;BME280;37243;49.814;8.652;2023-02-24T12:25:56;99136.88;;;26.36;43.59
51178;BME280;37243;49.814;8.652;2023-02-24T12:28:47;99133.41;;;26.39;43.12
51178;BME280;37243;49.814;8.652;2023-02-24T12:31:24;99123.28;;;26.43;42.84
51178;BME280;37243;49.814;8.652;2023-02-24T12:34:06;99117.03;;;26.46;43.54
51178;BME280;37243;49.814;8.652;2023-02-24T12:36:53;99112.44;;;26.50;42.93
51178;BME280;37243;49.814;8.652;2023-02-24T12:39:28;99100.38;;;26.55;42.84
51178;BME280;37243;49.814;8.652;2023-02-24T12:42:04;99102.03;;;26.60;43.50
51178;BME280;37243;49.814;8.652;2023-02-24T12:44:55;99089.50;;;26.62;43.10
51178;BME280;37243;49.814;8.652;2023-02-24T12:47:39;99090.41;;;26.66;43.29
51178;BME280;37243;49.814;8.652;2023-02-24T12:50:28;99084.94;;;26.70;42.71
51178;BME280;37243;49.814;8.652;2023-02-24T12:53:04;99074.81;;;26.74;42.53
51178;BME280;37243;49.814;8.652;2023-02-24T12:55:42;99069.75;;;26.76;43.01
51178;BME280;37243;49.814;8.652;2023-02-24T12:58:16;99063.56;;;26.79;43.12
51178;BME280;37243;49.814;8.652;2023-02-24T13:00:55;99067.53;;;26.81;43.03
51178;BME280;37243;49.814;8.652;2023-02-24T13:03:34;99061.69;;;26.83;42.53
51178;BME280;37243;49.814;8.652;2023-02-24T13:06:14;99059.78;;;26.87;42.83
51178;BME280;37243;49.814;8.652;2023-02-24T13:08:52;99050.38;;;26.88;42.71
51178;BME280;37243;49.814;8.652;2023-02-24T13:11:29;99041.41;;;26.91;42.69
51178;BME280;37243;49.814;8.652;2023-02-24T13:14:05;99041.09;;;26.96;42.84
51178;BME280;37243;49.814;8.652;2023-02-24T13:16:38;99040.03;;;27.00;42.50
51178;BME280;37243;49.814;8.652;2023-02-24T13:19:17;99033.78;;;27.03;42.83
51178;BME280;37243;49.814;8.652;2023-02-24T13:22:03;99029.94;;;27.08;42.83
51178;BME280;37243;49.814;8.652;2023-02-24T13:24:33;99028.47;;;27.14;42.49
51178;BME280;37243;49.814;8.652;2023-02-24T13:27:20;99026.94;;;27.17;42.28
51178;BME280;37243;49.814;8.652;2023-02-24T13:29:52;99021.94;;;27.22;42.48
51178;BME280;37243;49.814;8.652;2023-02-24T13:32:27;99018.44;;;27.25;41.86
51178;BME280;37243;49.814;8.652;2023-02-24T13:34:58;99016.91;;;27.28;42.63
51178;BME280;37243;49.814;8.652;2023-02-24T13:37:32;99017.72;;;27.28;42.22
51178;BME280;37243;49.814;8.652;2023-02-24T13:40:18;99013.81;;;27.29;41.92
51178;BME280;37243;49.814;8.652;2023-02-24T13:42:58;99016.19;;;27.31;41.91
51178;BME280;37243;49.814;8.652;2023-02-24T13:45:30;99007.56;;;27.32;42.58
51178;BME280;37243;49.814;8.652;2023-02-24T13:48:25;98999.66;;;27.31;42.31
51178;BME280;37243;49.814;8.652;2023-02-24T13:51:06;98994.22;;;27.34;42.35
51178;BME280;37243;49.814;8.652;2023-02-24T13:53:51;98989.88;;;27.33;42.84
51178;BME280;37243;49.814;8.652;2023-02-24T13:56:33;98984.81;;;27.35;42.45
51178;BME280;37243;49.814;8.652;2023-02-24T14:02:17;98980.53;;;27.38;42.23
51178;BME280;37243;49.814;8.652;2023-02-24T14:04:48;98984.06;;;27.38;42.96
51178;BME280;37243;49.814;8.652;2023-02-24T14:07:20;98985.97;;;27.34;43.02
51178;BME280;37243;49.814;8.652;2023-02-24T14:09:56;98980.84;;;27.33;42.73
51178;BME280;37243;49.814;8.652;2023-02-24T14:12:26;98976.84;;;27.30;43.17
51178;BME280;37243;49.814;8.652;2023-02-24T14:14:56;98968.94;;;27.29;42.70
51178;BME280;37243;49.814;8.652;2023-02-24T14:17:28;98963.38;;;27.25;42.94
51178;BME280;37243;49.814;8.652;2023-02-24T14:20:09;98960.94;;;27.20;43.05
51178;BME280;37243;49.814;8.652;2023-02-24T14:22:42;98975.84;;;27.19;42.80
51178;BME280;37243;49.814;8.652;2023-02-24T14:25:14;98964.84;;;27.19;43.46
51178;BME280;37243;49.814;8.652;2023-02-24T14:27:44;98960.88;;;27.17;43.24
51178;BME280;37243;49.814;8.652;2023-02-24T14:30:22;98958.84;;;27.14;43.32
51178;BME280;37243;49.814;8.652;2023-02-24T14:32:51;98950.59;;;27.14;43.26
51178;BME280;37243;49.814;8.652;2023-02-24T14:35:25;98947.41;;;27.12;43.59
51178;BME280;37243;49.814;8.652;2023-02-24T14:37:54;98948.56;;;27.11;43.29
51178;BME280;37243;49.814;8.652;2023-02-24T14:40:25;98942.66;;;27.09;43.71
51178;BME280;37243;49.814;8.652;2023-02-24T14:42:54;98943.00;;;27.07;43.66
51178;BME280;37243;49.814;8.652;2023-02-24T14:45:24;98952.03;;;27.04;43.82
51178;BME280;37243;49.814;8.652;2023-02-24T14:47:54;98942.50;;;27.01;43.51
51178;BME280;37243;49.814;8.652;2023-02-24T14:50:25;98941.28;;;26.99;43.81
51178;BME280;37243;49.814;8.652;2023-02-24T14:52:57;98943.63;;;26.97;43.33
51178;BME280;37243;49.814;8.652;2023-02-24T14:55:33;98929.78;;;26.93;43.57
51178;BME280;37243;49.814;8.652;2023-02-24T14:58:05;98931.31;;;26.91;43.71
51178;BME280;37243;49.814;8.652;2023-02-24T15:00:41;98927.34;;;26.88;43.50
51178;BME280;37243;49.814;8.652;2023-02-24T15:03:15;98928.50;;;26.87;43.53
51178;BME280;37243;49.814;8.652;2023-02-24T15:05:49;98921.44;;;26.86;43.89
51178;BME280;37243;49.814;8.652;2023-02-24T15:08:33;98924.91;;;26.83;43.53
51178;BME280;37243;49.814;8.652;2023-02-24T15:11:21;98909.47;;;26.79;43.77
51178;BME280;37243;49.814;8.652;2023-02-24T15:13:52;98906.72;;;26.79;43.87
51178;BME280;37243;49.814;8.652;2023-02-24T15:16:24;98910.97;;;26.76;44.59
51178;BME280;37243;49.814;8.652;2023-02-24T15:18:55;98911.34;;;26.75;44.17
51178;BME280;37243;49.814;8.652;2023-02-24T15:21:29;98895.13;;;26.70;44.40
51178;BME280;37243;49.814;8.652;2023-02-24T15:23:58;98902.59;;;26.69;44.28
51178;BME280;37243;49.814;8.652;2023-02-24T16:40:20;98870.50;;;24.09;47.63
51178;BME280;37243;49.814;8.652;2023-02-24T16:42:49;98868.31;;;24.14;48.34
51178;BME280;37243;49.814;8.652;2023-02-24T16:45:18;98873.22;;;24.21;48.45
51178;BME280;37243;49.814;8.652;2023-02-24T16:47:48;98867.47;;;24.26;48.54
51178;BME280;37243;49.814;8.652;2023-02-24T16:50:20;98870.06;;;24.35;48.29
51178;BME280;37243;49.814;8.652;2023-02-24T16:52:50;98868.28;;;24.42;48.54
51178;BME280;37243;49.814;8.652;2023-02-24T16:55:21;98867.69;;;24.49;48.49
51178;BME280;37243;49.814;8.652;2023-02-24T16:57:49;98864.69;;;24.54;48.45
51178;BME280;37243;49.814;8.652;2023-02-24T17:00:18;98865.59;;;24.58;48.04
51178;BME280;37243;49.814;8.652;2023-02-24T17:02:48;98866.84;;;24.60;47.41
51178;BME280;37243;49.814;8.652;2023-02-24T17:05:19;98867.28;;;24.62;47.21
51178;BME280;37243;49.814;8.652;2023-02-24T17:07:50;98871.25;;;24.65;47.09
51178;BME280;37243;49.814;8.652;2023-02-24T17:10:22;98869.31;;;24.65;46.88
51178;BME280;37243;49.814;8.652;2023-02-24T17:12:50;98879.94;;;24.67;47.47
51178;BME280;37243;49.814;8.652;2023-02-24T17:15:21;98880.38;;;24.69;47.38
51178;BME280;37243;49.814;8.652;2023-02-24T17:17:51;98883.13;;;24.69;47.15
51178;BME280;37243;49.814;8.652;2023-02-24T17:20:20;98894.09;;;24.69;46.68
51178;BME280;37243;49.814;8.652;2023-02-24T17:22:49;98900.38;;;24.69;46.97
51178;BME280;37243;49.814;8.652;2023-02-24T17:25:22;98899.56;;;24.69;46.92
51178;BME280;37243;49.814;8.652;2023-02-24T17:27:52;98907.00;;;24.68;46.55
51178;BME280;37243;49.814;8.652;2023-02-24T17:30:23;98921.50;;;24.69;46.74
51178;BME280;37243;49.814;8.652;2023-02-24T17:32:52;98925.38;;;24.68;46.48
51178;BME280;37243;49.814;8.652;2023-02-24T17:35:21;98930.09;;;24.67;46.56
51178;BME280;37243;49.814;8.652;2023-02-24T17:37:49;98929.31;;;24.67;46.89
51178;BME280;37243;49.814;8.652;2023-02-24T17:40:21;98941.41;;;24.66;46.66
51178;BME280;37243;49.814;8.652;2023-02-24T17:42:49;98950.75;;;24.65;46.16
51178;BME280;37243;49.814;8.652;2023-02-24T17:45:18;98941.78;;;24.64;46.32
51178;BME280;37243;49.814;8.652;2023-02-24T17:47:47;98942.91;;;24.63;46.80
51178;BME280;37243;49.814;8.652;2023-02-24T17:50:17;98952.63;;;24.61;46.03
51178;BME280;37243;49.814;8.652;2023-02-24T17:52:45;98953.75;;;24.60;46.11
51178;BME280;37243;49.814;8.652;2023-02-24T17:55:13;98946.34;;;24.60;46.16
51178;BME280;37243;49.814;8.652;2023-02-24T17:57:44;98952.19;;;24.59;46.23
51178;BME280;37243;49.814;8.652;2023-02-24T18:00:13;98958.81;;;24.58;46.36
51178;BME280;37243;49.814;8.652;2023-02-24T18:02:42;98963.50;;;24.57;46.41
51178;BME280;37243;49.814;8.652;2023-02-24T18:05:11;98966.59;;;24.56;46.04
51178;BME280;37243;49.814;8.652;2023-02-24T18:07:39;98965.00;;;24.55;46.00
51178;BME280;37243;49.814;8.652;2023-02-24T18:10:09;98963.38;;;24.54;46.22
51178;BME280;37243;49.814;8.652;2023-02-24T18:12:37;98959.06;;;24.53;45.94
51178;BME280;37243;49.814;8.652;2023-02-24T18:15:09;98968.44;;;24.52;46.36
51178;BME280;37243;49.814;8.652;2023-02-24T18:17:38;98965.69;;;24.52;46.15
51178;BME280;37243;49.814;8.652;2023-02-24T18:20:08;98970.38;;;24.51;46.45
51178;BME280;37243;49.814;8.652;2023-02-24T18:22:37;98973.47;;;24.50;46.00
51178;BME280;37243;49.814;8.652;2023-02-24T18:25:06;98971.88;;;24.49;45.87
51178;BME280;37243;49.814;8.652;2023-02-24T18:27:34;98980.09;;;24.49;46.35
51178;BME280;37243;49.814;8.652;2023-02-24T18:30:04;98983.19;;;24.47;46.03
51178;BME280;37243;49.814;8.652;2023-02-24T18:32:37;98980.78;;;24.46;46.26
51178;BME280;37243;49.814;8.652;2023-02-24T18:35:08;98975.66;;;24.44;46.30
51178;BME280;37243;49.814;8.652;2023-02-24T18:37:37;98977.59;;;24.44;46.47
51178;BME280;37243;49.814;8.652;2023-02-24T18:40:06;98977.59;;;24.44;46.02
51178;BME280;37243;49.814;8.652;2023-02-24T18:42:36;98982.63;;;24.42;46.34
51178;BME280;37243;49.814;8.652;2023-02-24T18:45:07;98981.84;;;24.41;46.09
51178;BME280;37243;49.814;8.652;2023-02-24T18:47:38;98973.16;;;24.39;45.91
51178;BME280;37243;49.814;8.652;2023-02-24T18:50:08;98979.44;;;24.40;46.17
51178;BME280;37243;49.814;8.652;2023-02-24T18:52:36;98984.13;;;24.39;46.48
51178;BME280;37243;49.814;8.652;2023-02-24T18:55:05;98983.31;;;24.39;45.87
51178;BME280;37243;49.814;8.652;2023-02-24T18:57:34;98980.13;;;24.37;46.31
51178;BME280;37243;49.814;8.652;2023-02-24T19:00:02;98975.81;;;24.36;46.16
51178;BME280;37243;49.814;8.652;2023-02-24T19:02:31;98972.59;;;24.34;46.15
51178;BME280;37243;49.814;8.652;2023-02-24T19:05:02;98969.84;;;24.34;45.81
51178;BME280;37243;49.814;8.652;2023-02-24T19:07:33;98972.97;;;24.32;45.67
51178;BME280;37243;49.814;8.652;2023-02-24T19:10:02;98974.09;;;24.31;46.05
51178;BME280;37243;49.814;8.652;2023-02-24T19:12:31;98966.25;;;24.30;46.17
51178;BME280;37243;49.814;8.652;2023-02-24T19:14:59;98967.38;;;24.28;46.27
51178;BME280;37243;49.814;8.652;2023-02-24T19:17:28;98954.81;;;24.27;45.59
51178;BME280;37243;49.814;8.652;2023-02-24T19:19:56;98967.72;;;24.27;45.58
51178;BME280;37243;49.814;8.652;2023-02-24T19:22:27;98968.88;;;24.26;45.53
51178;BME280;37243;49.814;8.652;2023-02-24T19:24:55;98973.53;;;24.25;45.50
51178;BME280;37243;49.814;8.652;2023-02-24T19:27:24;98970.34;;;24.23;45.63
51178;BME280;37243;49.814;8.652;2023-02-24T19:29:52;98978.59;;;24.23;45.98
51178;BME280;37243;49.814;8.652;2023-02-24T19:32:22;98979.72;;;24.22;45.55
51178;BME280;37243;49.814;8.652;2023-02-24T19:34:50;98979.72;;;24.22;45.91
51178;BME280;37243;49.814;8.652;2023-02-24T19:37:18;98980.50;;;24.23;46.10
51178;BME280;37243;49.814;8.652;2023-02-24T19:39:51;98982.00;;;24.20;46.10
51178;BME280;37243;49.814;8.652;2023-02-24T19:42:20;98974.94;;;24.19;45.71
51178;BME280;37243;49.814;8.652;2023-02-24T19:44:48;98971.38;;;24.19;45.83
51178;BME280;37243;49.814;8.652;2023-02-24T19:47:17;98972.53;;;24.18;45.73
51178;BME280;37243;49.814;8.652;2023-02-24T19:49:46;98970.94;;;24.17;46.13
51178;BME280;37243;49.814;8.652;2023-02-24T19:52:14;98970.13;;;24.16;46.08
51178;BME280;37243;49.814;8.652;2023-02-24T19:54:42;98969.69;;;24.14;45.59
51178;BME280;37243;49.814;8.652;2023-02-24T19:57:13;98971.31;;;24.15;45.57
51178;BME280;37243;49.814;8.652;2023-02-24T19:59:42;98966.16;;;24.14;46.04
51178;BME280;37243;49.814;8.652;2023-02-24T20:02:11;98966.94;;;24.14;45.62
51178;BME280;37243;49.814;8.652;2023-02-24T20:04:39;98977.47;;;24.12;46.06
51178;BME280;37243;49.814;8.652;2023-02-24T20:07:19;98967.66;;;24.11;45.30
51178;BME280;37243;49.814;8.652;2023-02-24T20:09:48;98974.25;;;24.10;46.01
51178;BME280;37243;49.814;8.652;2023-02-24T20:12:21;98976.53;;;24.08;45.85
51178;BME280;37243;49.814;8.652;2023-02-24T20:14:49;98973.34;;;24.06;45.47
51178;BME280;37243;49.814;8.652;2023-02-24T20:17:18;98981.56;;;24.06;45.41
51178;BME280;37243;49.814;8.652;2023-02-24T20:19:46;98967.38;;;24.04;45.56
51178;BME280;37243;49.814;8.652;2023-02-24T20:22:15;98966.94;;;24.02;45.54
51178;BME280;37243;49.814;8.652;2023-02-24T20:24:43;98966.03;;;23.98;45.78
51178;BME280;37243;49.814;8.652;2023-02-24T20:27:12;98969.94;;;23.97;45.41
51178;BME280;37243;49.814;8.652;2023-02-24T20:29:43;98966.75;;;23.95;45.46
51178;BME280;37243;49.814;8.652;2023-02-24T20:32:11;98968.69;;;23.95;46.08
51178;BME280;37243;49.814;8.652;2023-02-24T20:34:40;98963.91;;;23.92;46.11
51178;BME280;37243;49.814;8.652;2023-02-24T20:37:09;98959.91;;;23.89;46.10
51178;BME280;37243;49.814;8.652;2023-02-24T20:39:37;98959.09;;;23.89;45.65
51178;BME280;37243;49.814;8.652;2023-02-24T20:42:05;98953.97;;;23.87;46.29
51178;BME280;37243;49.814;8.652;2023-02-24T20:44:34;98946.44;;;23.84;45.80
51178;BME280;37243;49.814;8.652;2023-02-24T20:47:05;98955.81;;;23.83;45.84
51178;BME280;37243;49.814;8.652;2023-02-24T20:49:33;98947.13;;;23.81;45.63
51178;BME280;37243;49.814;8.652;2023-02-24T20:52:01;98944.75;;;23.80;46.30
51178;BME280;37243;49.814;8.652;2023-02-24T20:54:30;98940.75;;;23.77;46.21
51178;BME280;37243;49.814;8.652;2023-02-24T20:56:59;98950.09;;;23.76;46.22
51178;BME280;37243;49.814;8.652;2023-02-24T20:59:27;98940.31;;;23.75;45.58
51178;BME280;37243;49.814;8.652;2023-02-24T21:01:56;98949.66;;;23.74;45.68
51178;BME280;37243;49.814;8.652;2023-02-24T21:04:27;98943.72;;;23.72;46.03
51178;BME280;37243;49.814;8.652;2023-02-24T21:06:55;98940.53;;;23.70;45.66
51178;BME280;37243;49.814;8.652;2023-02-24T21:09:24;98938.13;;;23.68;45.74
51178;BME280;37243;49.814;8.652;2023-02-24T21:11:52;98954.56;;;23.68;45.92
51178;BME280;37243;49.814;8.652;2023-02-24T21:14:20;98957.63;;;23.67;46.27
51178;BME280;37243;49.814;8.652;2023-02-24T21:16:52;98948.16;;;23.64;45.83
51178;BME280;37243;49.814;8.652;2023-02-24T21:19:20;98953.66;;;23.64;45.64
51178;BME280;37243;49.814;8.652;2023-02-24T21:21:51;98951.25;;;23.63;45.82
51178;BME280;37243;49.814;8.652;2023-02-24T21:24:19;98937.91;;;23.61;45.77
51178;BME280;37243;49.814;8.652;2023-02-24T21:26:48;98939.84;;;23.61;45.54
51178;BME280;37243;49.814;8.652;2023-02-24T21:29:16;98948.06;;;23.61;46.28
51178;BME280;37243;49.814;8.652;2023-02-24T21:31:45;98933.59;;;23.60;46.18
51178;BME280;37243;49.814;8.652;2023-02-24T21:34:14;98944.88;;;23.59;45.54
51178;BME280;37243;49.814;8.652;2023-02-24T21:36:43;98943.25;;;23.58;46.10
51178;BME280;37243;49.814;8.652;2023-02-24T21:39:14;98943.63;;;23.56;46.37
51178;BME280;37243;49.814;8.652;2023-02-24T21:41:43;98934.59;;;23.56;46.30
51178;BME280;37243;49.814;8.652;2023-02-24T21:44:12;98940.44;;;23.54;45.61
51178;BME280;37243;49.814;8.652;2023-02-24T21:46:41;98949.44;;;23.55;46.02
51178;BME280;37243;49.814;8.652;2023-02-24T21:49:11;98949.44;;;23.55;45.75
51178;BME280;37243;49.814;8.652;2023-02-24T21:51:42;98956.06;;;23.54;45.89
51178;BME280;37243;49.814;8.652;2023-02-24T21:54:13;98956.84;;;23.54;46.19
51178;BME280;37243;49.814;8.652;2023-02-24T21:56:42;98967.00;;;23.54;45.82
51178;BME280;37243;49.814;8.652;2023-02-24T21:59:10;98970.06;;;23.52;45.95
51178;BME280;37243;49.814;8.652;2023-02-24T22:01:41;98973.59;;;23.53;46.29
51178;BME280;37243;49.814;8.652;2023-02-24T22:04:11;98980.25;;;23.52;46.09
51178;BME280;37243;49.814;8.652;2023-02-24T22:06:41;98981.38;;;23.51;45.90
51178;BME280;37243;49.814;8.652;2023-02-24T22:09:11;98978.63;;;23.51;45.82
51178;BME280;37243;49.814;8.652;2023-02-24T22:11:47;98973.47;;;23.49;45.67
51178;BME280;37243;49.814;8.652;2023-02-24T22:14:16;98981.38;;;23.51;45.94
51178;BME280;37243;49.814;8.652;2023-02-24T22:16:45;98980.91;;;23.49;45.80